Time;durP1;ratioP1;P1;durP2;ratioP2;P2;SDS_P1;SDS_P2;PMS_P1;PMS_P2;Temp;Humidity;BMP_temperature;BMP_pressure;BME280_temperature;BME280_humidity;BME280_pressure;Samples;Min_cycle;Max_cycle;Signal;HPM_P1;HPM_P2
2021/01/25 00:00:54;;;;;;;34.50;24.72;;;;;;;6.74;100.00;98559.34;1740726;80;21042;-53
2021/01/25 00:03:22;;;;;;;30.25;24.02;;;;;;;6.74;100.00;98562.02;1741084;81;21081;-53
2021/01/25 00:09:08;;;;;;;33.90;23.22;;;;;;;6.79;100.00;98558.62;1753510;79;22426;-52
2021/01/25 00:11:38;;;;;;;28.52;21.37;;;;;;;6.74;100.00;98562.02;1713754;83;21041;-53
2021/01/25 00:14:08;;;;;;;27.10;19.67;;;;;;;6.73;100.00;98560.30;1712348;82;21395;-54
2021/01/25 00:16:37;;;;;;;30.17;22.32;;;;;;;6.72;100.00;98563.93;1713179;82;21566;-53
2021/01/25 00:19:06;;;;;;;31.90;23.12;;;;;;;6.71;100.00;98554.17;1713516;82;20986;-53
2021/01/25 00:21:34;;;;;;;28.02;19.45;;;;;;;6.71;100.00;98562.20;1713736;83;21022;-55
2021/01/25 00:24:02;;;;;;;18.82;14.47;;;;;;;6.71;100.00;98562.20;1714878;82;20989;-54
2021/01/25 00:26:30;;;;;;;16.65;12.95;;;;;;;6.71;100.00;98560.86;1713175;82;21712;-53
2021/01/25 00:28:58;;;;;;;16.17;12.55;;;;;;;6.72;100.00;98561.73;1712982;82;21022;-55
2021/01/25 00:31:26;;;;;;;13.13;10.55;;;;;;;6.72;100.00;98562.59;1714911;83;20955;-54
2021/01/25 00:33:54;;;;;;;14.30;9.20;;;;;;;6.73;100.00;98562.97;1713921;83;21599;-54
2021/01/25 00:36:22;;;;;;;12.13;8.88;;;;;;;6.72;100.00;98567.95;1712182;83;20982;-56
2021/01/25 00:38:50;;;;;;;9.43;8.05;;;;;;;6.72;100.00;98569.28;1713185;82;22260;-52
2021/01/25 00:41:18;;;;;;;10.90;8.43;;;;;;;6.70;100.00;98571.16;1713111;83;21196;-54
2021/01/25 00:43:46;;;;;;;9.63;8.38;;;;;;;6.70;100.00;98571.16;1714454;83;21021;-53
2021/01/25 00:46:14;;;;;;;8.93;7.30;;;;;;;6.71;100.00;98555.51;1714621;82;21143;-53
2021/01/25 00:48:42;;;;;;;10.90;7.62;;;;;;;6.70;100.00;98556.42;1714797;83;21140;-54
2021/01/25 00:51:10;;;;;;;9.15;6.95;;;;;;;6.70;100.00;98556.42;1715446;83;21375;-55
2021/01/25 00:53:38;;;;;;;9.30;7.75;;;;;;;6.69;100.00;98550.69;1715546;83;21144;-53
2021/01/25 00:56:06;;;;;;;9.23;7.15;;;;;;;6.67;100.00;98544.56;1716206;83;21021;-54
2021/01/25 00:58:35;;;;;;;8.90;6.97;;;;;;;6.69;100.00;98543.13;1715676;83;21594;-52
2021/01/25 01:01:03;;;;;;;11.40;7.72;;;;;;;6.68;100.00;98535.56;1716399;82;20991;-53
2021/01/25 01:03:32;;;;;;;10.63;7.65;;;;;;;6.71;100.00;98531.84;1667930;83;21615;-53
2021/01/25 01:06:00;;;;;;;9.98;8.50;;;;;;;6.71;100.00;98531.39;1714665;83;21144;-53
2021/01/25 01:08:28;;;;;;;9.48;8.50;;;;;;;6.68;100.00;98532.89;1705442;83;21149;-52
2021/01/25 01:10:56;;;;;;;12.90;9.13;;;;;;;6.67;100.00;98531.16;1702980;82;21951;-54
2021/01/25 01:13:24;;;;;;;11.35;8.45;;;;;;;6.69;100.00;98534.61;1702868;82;21128;-55
2021/01/25 01:15:52;;;;;;;10.93;8.00;;;;;;;6.71;100.00;98535.41;1703673;84;21212;-53
2021/01/25 01:18:20;;;;;;;10.60;8.40;;;;;;;6.74;100.00;98528.53;1702675;84;21018;-53
2021/01/25 01:20:48;;;;;;;11.35;8.60;;;;;;;6.73;100.00;98524.61;1702006;82;21144;-45
2021/01/25 01:23:16;;;;;;;12.63;9.75;;;;;;;6.72;100.00;98522.87;1701749;82;21138;-47
2021/01/25 01:25:45;;;;;;;11.35;8.93;;;;;;;6.70;100.00;98525.62;1703042;82;21114;-50
2021/01/25 01:28:13;;;;;;;12.30;8.95;;;;;;;6.70;100.00;98526.96;1703080;84;21212;-50
2021/01/25 01:30:41;;;;;;;12.00;9.88;;;;;;;6.68;100.00;98532.89;1701801;84;21022;-50
2021/01/25 01:33:09;;;;;;;11.45;9.50;;;;;;;6.68;100.00;98524.85;1703241;84;21149;-50
2021/01/25 01:35:37;;;;;;;13.55;9.30;;;;;;;6.68;100.00;98528.87;1701166;84;20971;-50
2021/01/25 01:38:06;;;;;;;12.65;10.18;;;;;;;6.66;100.00;98517.83;1702239;82;21625;-49
2021/01/25 01:40:34;;;;;;;12.73;9.83;;;;;;;6.64;100.00;98514.37;1702769;84;21364;-49
2021/01/25 01:43:02;;;;;;;13.32;10.23;;;;;;;6.63;100.00;98521.55;1701968;84;21121;-49
2021/01/25 01:45:30;;;;;;;15.48;11.25;;;;;;;6.64;100.00;98525.95;1702318;84;21043;-49
2021/01/25 01:47:59;;;;;;;14.90;11.48;;;;;;;6.60;100.00;98525.72;1701983;82;20943;-50
2021/01/25 01:50:28;;;;;;;20.50;13.58;;;;;;;6.60;100.00;98529.74;1702347;84;21346;-49
2021/01/25 01:52:57;;;;;;;14.68;11.55;;;;;;;6.59;100.00;98526.67;1682520;84;21489;-50
2021/01/25 01:55:25;;;;;;;19.75;12.75;;;;;;;6.60;100.00;98524.38;1681025;84;21141;-49
2021/01/25 01:57:53;;;;;;;20.90;14.07;;;;;;;6.58;100.00;98520.94;1701419;82;21128;-50
2021/01/25 02:00:21;;;;;;;19.95;14.55;;;;;;;6.58;100.00;98523.61;1703306;84;21117;-51
2021/01/25 02:02:49;;;;;;;24.45;17.42;;;;;;;6.58;100.00;98526.29;1701015;82;21099;-50
2021/01/25 02:05:17;;;;;;;22.82;14.63;;;;;;;6.56;100.00;98525.52;1701919;84;21372;-49
2021/01/25 02:07:47;;;;;;;24.30;15.70;;;;;;;6.57;100.00;98521.89;1703878;82;21129;-50
2021/01/25 02:10:15;;;;;;;21.87;14.40;;;;;;;6.57;100.00;98519.21;1715533;82;21109;-50
2021/01/25 02:12:44;;;;;;;23.02;15.70;;;;;;;6.58;100.00;98525.42;1689658;83;21195;-49
2021/01/25 02:15:14;;;;;;;24.57;17.12;;;;;;;6.56;100.00;98528.20;1716064;83;21180;-50
2021/01/25 02:17:42;;;;;;;29.55;18.35;;;;;;;6.54;100.00;98530.08;1629613;86;21356;-48
2021/01/25 02:20:27;;;;;;;32.93;20.88;;;;;;;6.52;100.00;98521.27;1715502;82;21140;-48
2021/01/25 02:23:20;;;;;;;40.25;22.55;;;;;;;6.52;100.00;98529.30;1716560;82;21120;-48
2021/01/25 02:26:28;;;;;;;39.63;22.35;;;;;;;6.51;100.00;98531.13;1715174;82;20987;-49
2021/01/25 02:28:56;;;;;;;35.95;21.45;;;;;;;6.52;100.00;98537.34;1716054;83;20998;-48
2021/01/25 02:31:24;;;;;;;45.65;23.52;;;;;;;6.52;100.00;98537.34;1715746;83;22278;-46
2021/01/25 02:33:53;;;;;;;34.85;20.97;;;;;;;6.50;100.00;98538.77;1713947;82;21050;-47
2021/01/25 02:36:21;;;;;;;36.45;22.22;;;;;;;6.49;100.00;98536.15;1713765;83;21162;-46
2021/01/25 02:38:50;;;;;;;34.78;19.45;;;;;;;6.49;100.00;98538.83;1694966;83;21569;-45
2021/01/25 02:41:26;;;;;;;40.65;22.45;;;;;;;6.46;100.00;98532.31;1714245;83;21052;-46
2021/01/25 02:43:57;;;;;;;42.00;21.80;;;;;;;6.44;100.00;98534.19;1712978;82;21338;-45
2021/01/25 02:46:33;;;;;;;44.08;21.73;;;;;;;6.49;100.00;98542.84;1812165;76;22699;-47
2021/01/25 02:49:02;;;;;;;42.15;21.70;;;;;;;6.45;100.00;98546.66;1787067;77;21128;-48
2021/01/25 02:51:30;;;;;;;35.83;19.90;;;;;;;6.44;100.00;98544.89;1770440;79;21186;-46
2021/01/25 02:53:58;;;;;;;48.58;22.77;;;;;;;6.42;100.00;98542.31;1769443;79;21386;-45
2021/01/25 02:56:26;;;;;;;40.45;22.77;;;;;;;6.43;100.00;98542.70;1770604;79;21340;-45
2021/01/25 02:58:54;;;;;;;37.40;21.60;;;;;;;6.42;100.00;98544.13;1771763;79;20993;-46
2021/01/25 03:01:22;;;;;;;45.55;21.93;;;;;;;6.41;100.00;98558.47;1772487;79;21503;-46
2021/01/25 03:03:51;;;;;;;51.28;23.98;;;;;;;6.39;100.00;98552.30;1774137;79;21030;-47
2021/01/25 03:06:19;;;;;;;47.08;24.80;;;;;;;6.39;100.00;98549.62;1775451;79;21171;-45
2021/01/25 03:08:47;;;;;;;47.48;24.32;;;;;;;6.39;100.00;98550.97;1774171;79;20981;-46
2021/01/25 03:11:18;;;;;;;38.53;21.93;;;;;;;6.38;100.00;98552.78;1773337;79;21151;-46
2021/01/25 03:13:46;;;;;;;42.20;22.82;;;;;;;6.38;100.00;98550.58;1744919;79;21100;-45
2021/01/25 03:16:16;;;;;;;46.77;24.45;;;;;;;6.35;100.00;98553.44;1773694;79;21377;-44
2021/01/25 03:18:45;;;;;;;40.40;22.22;;;;;;;6.36;100.00;98549.81;1773863;79;20994;-45
2021/01/25 03:21:13;;;;;;;47.48;23.80;;;;;;;6.35;100.00;98548.95;1774930;79;21688;-45
2021/01/25 03:23:41;;;;;;;40.65;22.60;;;;;;;6.34;100.00;98540.97;1775969;79;21584;-45
2021/01/25 03:26:09;;;;;;;39.75;22.13;;;;;;;6.35;100.00;98546.75;1775281;79;21582;-46
2021/01/25 03:28:37;;;;;;;41.18;22.60;;;;;;;6.32;100.00;98545.55;1774475;79;22120;-46
2021/01/25 03:31:05;;;;;;;39.48;22.93;;;;;;;6.29;100.00;98536.75;1775339;79;21543;-47
2021/01/25 03:33:33;;;;;;;42.62;22.17;;;;;;;6.27;100.00;98533.27;1774207;79;21120;-45
2021/01/25 03:36:01;;;;;;;40.52;21.50;;;;;;;6.27;100.00;98537.75;1774264;79;21197;-45
2021/01/25 03:38:29;;;;;;;39.25;22.05;;;;;;;6.27;100.00;98539.95;1774600;79;21020;-46
2021/01/25 03:40:58;;;;;;;40.10;21.05;;;;;;;6.24;100.00;98533.45;1774660;79;21372;-48
2021/01/25 03:43:26;;;;;;;43.10;22.65;;;;;;;6.23;100.00;98528.15;1774341;79;21739;-46
2021/01/25 03:45:54;;;;;;;45.52;24.45;;;;;;;6.21;100.00;98526.03;1767385;79;21700;-44
2021/01/25 03:48:22;;;;;;;40.28;21.27;;;;;;;6.19;100.00;98519.44;1762225;79;21565;-47
2021/01/25 03:50:51;;;;;;;45.12;22.95;;;;;;;6.21;100.00;98515.33;1764648;79;21522;-47
2021/01/25 03:53:19;;;;;;;46.90;24.20;;;;;;;6.21;100.00;98513.52;1765046;79;21377;-44
2021/01/25 03:55:47;;;;;;;48.00;24.72;;;;;;;6.21;100.00;98507.30;1763267;79;21191;-45
2021/01/25 03:58:15;;;;;;;40.95;23.27;;;;;;;6.21;100.00;98505.48;1763622;79;20955;-46
2021/01/25 04:00:43;;;;;;;47.80;26.55;;;;;;;6.24;100.00;98506.67;1763189;79;21573;-46
2021/01/25 04:03:13;;;;;;;48.50;29.55;;;;;;;6.22;100.00;98505.88;1764162;79;20962;-45
2021/01/25 04:05:41;;;;;;;48.08;28.90;;;;;;;6.22;100.00;98497.84;1762528;79;21543;-46
2021/01/25 04:08:09;;;;;;;47.58;28.17;;;;;;;6.22;100.00;98495.16;1763244;79;21038;-46
2021/01/25 04:10:37;;;;;;;46.28;26.02;;;;;;;6.23;100.00;98494.24;1763373;79;20982;-46
2021/01/25 04:13:05;;;;;;;41.45;23.57;;;;;;;6.22;100.00;98496.98;1762623;79;21450;-46
2021/01/25 04:15:36;;;;;;;40.38;21.27;;;;;;;6.21;100.00;98503.28;1764104;79;21200;-45
2021/01/25 04:18:05;;;;;;;38.67;22.13;;;;;;;6.20;100.00;98513.60;1762913;79;21381;-46
2021/01/25 04:20:33;;;;;;;35.63;21.73;;;;;;;6.21;100.00;98509.50;1762545;79;21046;-46
2021/01/25 04:23:01;;;;;;;39.50;22.67;;;;;;;6.21;100.00;98512.17;1764335;79;20971;-47
2021/01/25 04:25:30;;;;;;;38.30;23.05;;;;;;;6.19;100.00;98508.73;1763838;79;21168;-46
2021/01/25 04:27:58;;;;;;;39.00;22.50;;;;;;;6.18;100.00;98508.34;1763510;79;20982;-45
2021/01/25 04:30:26;;;;;;;42.90;24.65;;;;;;;6.17;100.00;98510.59;1763213;79;21371;-47
2021/01/25 04:32:54;;;;;;;46.85;26.27;;;;;;;6.16;100.00;98503.52;1763394;79;21168;-46
2021/01/25 04:35:22;;;;;;;42.60;25.43;;;;;;;6.17;100.00;98502.57;1764028;79;21128;-47
2021/01/25 04:37:50;;;;;;;43.20;26.12;;;;;;;6.19;100.00;98510.54;1763563;79;21586;-49
2021/01/25 04:40:19;;;;;;;36.48;23.50;;;;;;;6.17;100.00;98513.27;1763741;79;21543;-45
2021/01/25 04:42:47;;;;;;;44.95;26.20;;;;;;;6.16;100.00;98510.21;1763082;79;21189;-46
2021/01/25 04:45:16;;;;;;;36.38;24.12;;;;;;;6.13;100.00;98502.36;1746367;80;21602;-46
2021/01/25 04:47:49;;;;;;;43.08;25.05;;;;;;;6.13;100.00;98503.70;1777999;79;21144;-45
2021/01/25 04:50:20;;;;;;;44.38;25.65;;;;;;;6.12;100.00;98504.62;1778046;79;21533;-46
2021/01/25 04:52:49;;;;;;;47.48;27.45;;;;;;;6.11;100.00;98504.23;1777588;79;24831;-46
2021/01/25 04:55:17;;;;;;;46.08;26.95;;;;;;;6.10;100.00;98502.51;1777417;79;21369;-47
2021/01/25 04:57:45;;;;;;;50.17;29.48;;;;;;;6.10;100.00;98493.14;1777740;79;20986;-48
2021/01/25 05:00:16;;;;;;;42.27;27.42;;;;;;;6.10;100.00;98493.14;1776431;79;21124;-46
2021/01/25 05:02:44;;;;;;;39.40;24.23;;;;;;;6.12;100.00;98491.71;1772274;79;21120;-47
2021/01/25 05:05:12;;;;;;;34.88;21.50;;;;;;;6.10;100.00;98494.95;1772827;79;21046;-46
2021/01/25 05:07:40;;;;;;;27.40;18.98;;;;;;;6.11;100.00;98500.22;1771882;79;21387;-45
2021/01/25 05:10:09;;;;;;;28.60;18.37;;;;;;;6.11;100.00;98508.25;1773293;79;21684;-47
2021/01/25 05:12:48;;;;;;;28.65;18.40;;;;;;;6.11;100.00;98505.56;1774441;79;21167;-47
2021/01/25 05:15:32;;;;;;;26.45;17.62;;;;;;;6.11;100.00;98494.86;1773179;79;21616;-55
2021/01/25 05:18:06;;;;;;;30.92;19.12;;;;;;;6.13;100.00;98502.84;1776582;79;21093;-55
2021/01/25 05:20:34;;;;;;;26.73;18.52;;;;;;;6.15;100.00;98499.12;1774276;79;21419;-57
2021/01/25 05:23:14;;;;;;;28.85;17.55;;;;;;;6.15;100.00;98497.78;1774459;79;21448;-55
2021/01/25 05:25:42;;;;;;;26.85;16.97;;;;;;;6.16;100.00;98498.17;1775748;79;21566;-56
2021/01/25 05:28:18;;;;;;;30.32;19.87;;;;;;;6.16;100.00;98494.63;1772960;79;21193;-54
2021/01/25 05:30:47;;;;;;;26.07;18.23;;;;;;;6.15;100.00;98496.44;1776600;79;21049;-63
2021/01/25 05:33:27;;;;;;;27.82;19.00;;;;;;;6.13;100.00;98501.02;1740392;80;21437;-55
2021/01/25 05:35:56;;;;;;;26.55;17.77;;;;;;;6.15;100.00;98507.15;1721151;81;21542;-57
2021/01/25 05:38:24;;;;;;;28.40;18.20;;;;;;;6.16;100.00;98516.91;1718789;81;21143;-55
2021/01/25 05:40:55;;;;;;;26.68;17.30;;;;;;;6.15;100.00;98515.66;1717578;81;21097;-55
2021/01/25 05:43:33;;;;;;;28.47;17.20;;;;;;;6.14;100.00;98517.47;1719660;81;21109;-56
2021/01/25 05:46:08;;;;;;;29.90;19.00;;;;;;;6.13;100.00;98527.78;1718113;81;21459;-55
2021/01/25 05:48:36;;;;;;;26.45;17.45;;;;;;;6.13;100.00;98529.13;1680902;83;21168;-55
2021/01/25 05:51:16;;;;;;;25.43;17.00;;;;;;;6.13;100.00;98526.92;1650136;84;21590;-55
2021/01/25 05:53:46;;;;;;;24.43;15.38;;;;;;;6.11;100.00;98524.30;1677664;83;21125;-56
2021/01/25 05:56:15;;;;;;;22.55;15.93;;;;;;;6.11;100.00;98529.66;1670338;84;21020;-56
2021/01/25 05:58:44;;;;;;;22.13;14.00;;;;;;;6.10;100.00;98515.89;1678549;83;21472;-57
2021/01/25 06:01:12;;;;;;;20.08;14.18;;;;;;;6.10;100.00;98526.59;1680416;83;21169;-56
2021/01/25 06:03:40;;;;;;;20.30;15.48;;;;;;;6.07;100.00;98530.75;1681191;84;21622;-55
2021/01/25 06:06:27;;;;;;;24.80;14.45;;;;;;;6.07;100.00;98532.09;1680164;83;21137;-57
2021/01/25 06:09:23;;;;;;;19.25;13.93;;;;;;;6.07;100.00;98525.40;1681819;83;21563;-55
2021/01/25 06:11:51;;;;;;;18.20;12.98;;;;;;;6.06;100.00;98542.41;1680881;83;22285;-57
2021/01/25 06:14:23;;;;;;;17.35;13.72;;;;;;;6.03;100.00;98532.75;1680159;83;21180;-57
2021/01/25 06:16:52;;;;;;;16.27;11.57;;;;;;;6.03;100.00;98530.55;1652073;84;21141;-54
2021/01/25 06:19:23;;;;;;;19.82;13.78;;;;;;;6.02;100.00;98531.50;1681259;83;21586;-61
2021/01/25 06:21:51;;;;;;;21.35;15.32;;;;;;;6.00;100.00;98521.32;1681507;84;21597;-57
2021/01/25 06:24:20;;;;;;;22.20;14.15;;;;;;;5.98;100.00;98512.52;1680570;83;21394;-59
2021/01/25 06:26:49;;;;;;;33.50;19.70;;;;;;;5.97;100.00;98510.80;1678910;83;21243;-57
2021/01/25 06:29:20;;;;;;;35.90;20.60;;;;;;;5.98;100.00;98515.20;1680017;83;21164;-58
2021/01/25 06:31:55;;;;;;;43.70;24.72;;;;;;;5.99;100.00;98511.56;1680536;84;21180;-58
2021/01/25 06:34:25;;;;;;;45.10;25.15;;;;;;;5.97;100.00;98505.44;1680513;83;21137;-59
2021/01/25 06:36:53;;;;;;;47.73;29.20;;;;;;;5.97;100.00;98505.44;1679907;83;21522;-55
2021/01/25 06:39:27;;;;;;;52.38;28.70;;;;;;;5.96;100.00;98508.56;1680742;83;21194;-58
2021/01/25 06:42:04;;;;;;;45.73;27.95;;;;;;;5.97;100.00;98497.42;1680014;83;21149;-59
2021/01/25 06:44:40;;;;;;;46.15;25.08;;;;;;;6.02;100.00;98495.37;1811429;76;22721;-59
2021/01/25 06:47:08;;;;;;;37.48;20.97;;;;;;;5.97;100.00;98510.80;1726126;77;21433;-58
2021/01/25 06:49:36;;;;;;;33.45;20.15;;;;;;;5.97;100.00;98513.47;1791017;77;21203;-57
2021/01/25 06:52:08;;;;;;;32.13;19.65;;;;;;;5.95;100.00;98518.02;1764742;77;21048;-58
2021/01/25 06:54:42;;;;;;;27.82;18.07;;;;;;;5.97;100.00;98518.82;1790436;77;21017;-58
2021/01/25 06:57:22;;;;;;;24.05;16.37;;;;;;;5.96;100.00;98522.41;1793090;77;20970;-56
2021/01/25 06:59:51;;;;;;;23.47;15.45;;;;;;;5.92;100.00;98525.74;1793141;77;21097;-57
2021/01/25 07:02:20;;;;;;;19.32;13.38;;;;;;;5.92;100.00;98520.86;1794053;77;21205;-56
2021/01/25 07:04:50;;;;;;;20.72;13.48;;;;;;;5.90;100.00;98516.01;1790135;77;21261;-60
2021/01/25 07:07:31;;;;;;;20.85;13.78;;;;;;;5.89;100.00;98511.14;1793939;77;21001;-56
2021/01/25 07:09:59;;;;;;;19.65;13.58;;;;;;;5.90;100.00;98510.19;1795978;77;21731;-53
2021/01/25 07:12:28;;;;;;;19.75;13.62;;;;;;;5.91;100.00;98513.72;1794661;77;21118;-56
2021/01/25 07:14:57;;;;;;;24.65;14.85;;;;;;;5.91;100.00;98520.41;1789501;77;22258;-57
2021/01/25 07:17:25;;;;;;;25.55;14.98;;;;;;;5.92;100.00;98512.84;1738532;77;21722;-52
2021/01/25 07:19:55;;;;;;;25.25;17.02;;;;;;;5.92;100.00;98520.39;1789639;77;21593;-48
2021/01/25 07:22:23;;;;;;;21.93;13.98;;;;;;;5.94;100.00;98516.29;1792818;77;21187;-58
2021/01/25 07:24:51;;;;;;;25.27;15.55;;;;;;;5.93;100.00;98514.56;1790747;77;21158;-57
2021/01/25 07:27:20;;;;;;;22.45;15.43;;;;;;;5.93;100.00;98515.91;1730116;77;21436;-57
2021/01/25 07:29:48;;;;;;;23.25;15.98;;;;;;;5.93;100.00;98519.44;1791205;77;21002;-57
2021/01/25 07:32:16;;;;;;;27.13;16.85;;;;;;;5.95;100.00;98520.69;1792023;77;21037;-58
2021/01/25 07:34:44;;;;;;;24.18;16.15;;;;;;;5.95;100.00;98511.33;1791302;77;21543;-57
2021/01/25 07:37:12;;;;;;;27.52;18.62;;;;;;;5.98;100.00;98503.16;1787336;77;21120;-62
2021/01/25 07:39:43;;;;;;;31.62;17.48;;;;;;;6.00;100.00;98501.25;1790700;77;21401;-58
2021/01/25 07:42:11;;;;;;;32.00;19.80;;;;;;;5.99;100.00;98489.69;1794873;77;22121;-57
2021/01/25 07:44:43;;;;;;;29.87;19.55;;;;;;;6.01;100.00;98497.15;1790904;77;21549;-56
2021/01/25 07:47:11;;;;;;;31.12;20.68;;;;;;;6.02;100.00;98495.37;1777023;77;21119;-57
2021/01/25 07:49:39;;;;;;;33.15;21.17;;;;;;;6.01;100.00;98489.59;1791950;77;21120;-55
2021/01/25 07:52:17;;;;;;;27.45;18.73;;;;;;;6.03;100.00;98489.06;1795095;77;21597;-52
2021/01/25 07:54:47;;;;;;;34.80;23.47;;;;;;;6.04;100.00;98482.77;1787752;77;21183;-50
2021/01/25 07:57:23;;;;;;;44.25;25.88;;;;;;;6.04;100.00;98509.52;1787665;77;20994;-57
2021/01/25 07:59:54;;;;;;;47.98;26.73;;;;;;;6.05;100.00;98500.54;1794561;77;21195;-50
2021/01/25 08:02:22;;;;;;;43.38;24.25;;;;;;;6.08;100.00;98486.16;1790504;77;21172;-50
2021/01/25 08:04:51;;;;;;;32.00;19.35;;;;;;;6.09;100.00;98480.71;1793264;77;23175;-55
2021/01/25 08:07:19;;;;;;;27.87;18.12;;;;;;;6.07;100.00;98477.23;1794150;77;21577;-51
2021/01/25 08:09:47;;;;;;;24.67;15.13;;;;;;;6.05;100.00;98465.75;1793952;77;21148;-51
2021/01/25 08:12:20;;;;;;;23.18;16.60;;;;;;;6.05;100.00;98488.50;1789156;77;21304;-50
2021/01/25 08:14:49;;;;;;;25.10;17.02;;;;;;;6.03;100.00;98499.77;1765108;77;21573;-50
2021/01/25 08:17:25;;;;;;;28.05;19.12;;;;;;;6.05;100.00;98497.86;1792209;77;22219;-53
2021/01/25 08:20:08;;;;;;;28.80;18.90;;;;;;;6.11;100.00;98485.50;1837031;76;22725;-52
2021/01/25 08:27:25;;;;;;;32.28;20.92;;;;;;;6.10;100.00;98486.45;1755086;79;23427;-53
2021/01/25 08:30:11;;;;;;;34.48;20.88;;;;;;;6.08;100.00;98488.83;1725605;80;21022;-49
2021/01/25 08:32:46;;;;;;;37.40;21.30;;;;;;;6.11;100.00;98469.91;1734869;80;22060;-51
2021/01/25 08:35:14;;;;;;;36.80;20.70;;;;;;;6.13;100.00;98463.55;1728252;80;21057;-50
2021/01/25 08:37:43;;;;;;;39.20;20.37;;;;;;;6.14;100.00;98474.64;1727847;80;21724;-52
2021/01/25 08:40:22;;;;;;;33.95;21.12;;;;;;;6.17;100.00;98469.59;1724760;80;21010;-53
2021/01/25 08:42:50;;;;;;;30.65;20.72;;;;;;;6.21;100.00;98457.78;1730284;80;20998;-48
2021/01/25 08:45:25;;;;;;;29.52;19.73;;;;;;;6.20;100.00;98456.91;1722068;82;21380;-48
2021/01/25 08:48:08;;;;;;;32.08;20.90;;;;;;;6.20;100.00;98456.91;1694504;80;21663;-49
2021/01/25 08:50:36;;;;;;;31.17;21.07;;;;;;;6.23;100.00;98456.77;1723421;80;21348;-52
2021/01/25 08:53:10;;;;;;;29.00;20.52;;;;;;;6.25;100.00;98457.53;1728152;80;21026;-52
2021/01/25 08:55:43;;;;;;;27.17;19.70;;;;;;;6.25;100.00;98449.50;1729736;82;21676;-51
2021/01/25 08:58:30;;;;;;;41.00;22.75;;;;;;;6.24;100.00;98450.45;1725124;80;21387;-50
2021/01/25 09:00:58;;;;;;;41.70;23.65;;;;;;;6.24;100.00;98439.75;1730644;80;21006;-50
2021/01/25 09:03:26;;;;;;;42.27;23.55;;;;;;;6.25;100.00;98446.83;1729177;80;21192;-48
2021/01/25 09:05:55;;;;;;;38.83;22.67;;;;;;;6.25;100.00;98440.14;1731428;82;21002;-49
2021/01/25 09:08:24;;;;;;;34.85;21.48;;;;;;;6.28;100.00;98431.06;1730673;80;21160;-49
2021/01/25 09:10:55;;;;;;;36.60;22.05;;;;;;;6.28;100.00;98434.62;1732824;80;21582;-50
2021/01/25 09:13:23;;;;;;;29.15;20.08;;;;;;;6.28;100.00;98435.97;1728419;80;21140;-50
2021/01/25 09:15:51;;;;;;;30.35;19.32;;;;;;;6.28;100.00;98427.05;1730847;81;21010;-50
2021/01/25 09:18:20;;;;;;;34.20;20.75;;;;;;;6.28;100.00;98425.27;1729703;82;21060;-48
2021/01/25 09:20:48;;;;;;;34.83;22.10;;;;;;;6.29;100.00;98432.34;1727105;80;21690;-51
2021/01/25 09:23:18;;;;;;;35.28;21.15;;;;;;;6.32;100.00;98431.77;1726193;80;22514;-54
2021/01/25 09:25:46;;;;;;;67.30;31.17;;;;;;;6.30;100.00;98416.66;1726238;80;21141;-55
2021/01/25 09:28:24;;;;;;;61.42;30.43;;;;;;;6.35;100.00;98406.19;1813983;76;22750;-54
2021/01/25 09:30:52;;;;;;;52.83;25.95;;;;;;;6.32;100.00;98411.69;1762548;77;21057;-52
2021/01/25 09:33:20;;;;;;;48.23;26.17;;;;;;;6.32;100.00;98414.37;1718961;82;22304;-53
2021/01/25 09:35:49;;;;;;;48.02;25.27;;;;;;;6.33;100.00;98425.46;1724227;81;21027;-51
2021/01/25 09:38:17;;;;;;;46.02;26.57;;;;;;;6.34;100.00;98424.06;1726713;81;21265;-51
2021/01/25 09:40:45;;;;;;;53.78;26.75;;;;;;;6.35;100.00;98399.49;1723437;81;21500;-51
2021/01/25 09:43:13;;;;;;;42.83;25.45;;;;;;;6.36;100.00;98397.20;1725789;81;21015;-49
2021/01/25 09:45:41;;;;;;;51.13;26.68;;;;;;;6.36;100.00;98397.20;1725590;80;22284;-50
2021/01/25 09:48:11;;;;;;;50.70;22.87;;;;;;;6.36;100.00;98394.52;1725091;81;21186;-52
2021/01/25 09:50:40;;;;;;;41.25;22.62;;;;;;;6.35;100.00;98390.12;1722553;80;21015;-50
2021/01/25 09:53:08;;;;;;;38.17;23.12;;;;;;;6.33;100.00;98390.66;1717797;82;21099;-50
2021/01/25 09:55:36;;;;;;;40.40;21.75;;;;;;;6.29;100.00;98380.14;1720466;82;21145;-48
2021/01/25 09:58:04;;;;;;;49.20;24.92;;;;;;;6.30;100.00;98393.91;1712027;81;22097;-48
2021/01/25 10:00:32;;;;;;;50.12;24.67;;;;;;;6.32;100.00;98376.89;1715305;81;22058;-52
2021/01/25 10:03:02;;;;;;;44.67;24.43;;;;;;;6.34;100.00;98380.33;1712971;81;21583;-49
2021/01/25 10:05:30;;;;;;;53.00;25.72;;;;;;;6.35;100.00;98376.73;1714543;81;21017;-49
2021/01/25 10:07:58;;;;;;;39.53;23.42;;;;;;;6.36;100.00;98363.73;1717560;81;21617;-49
2021/01/25 10:10:28;;;;;;;60.70;26.77;;;;;;;6.36;100.00;98351.68;1713846;81;21374;-50
2021/01/25 10:12:56;;;;;;;49.48;25.60;;;;;;;6.38;100.00;98343.08;1714791;81;21561;-55
2021/01/25 10:15:24;;;;;;;42.30;23.38;;;;;;;6.42;100.00;98340.63;1712966;82;21585;-53
2021/01/25 10:17:52;;;;;;;40.43;24.18;;;;;;;6.44;100.00;98333.36;1711678;81;21167;-57
2021/01/25 10:20:21;;;;;;;36.45;21.48;;;;;;;6.46;100.00;98331.00;1711354;81;21143;-55
2021/01/25 10:22:49;;;;;;;35.48;21.62;;;;;;;6.47;100.00;98327.84;1710397;81;21456;-52
2021/01/25 10:25:18;;;;;;;46.95;23.87;;;;;;;6.46;100.00;98326.13;1715804;81;21565;-52
2021/01/25 10:27:46;;;;;;;70.92;27.82;;;;;;;6.46;100.00;98315.41;1707454;82;21180;-52
2021/01/25 10:30:16;;;;;;;46.50;22.93;;;;;;;6.43;100.00;98312.89;1702447;83;21184;-51
2021/01/25 10:32:44;;;;;;;45.43;22.62;;;;;;;6.43;100.00;98296.83;1692880;82;21144;-51
2021/01/25 10:35:14;;;;;;;46.70;23.42;;;;;;;6.40;100.00;98295.68;1696206;83;21093;-49
2021/01/25 10:37:48;;;;;;;41.63;23.27;;;;;;;6.40;100.00;98293.00;1696778;83;21207;-51
2021/01/25 10:40:16;;;;;;;36.40;21.45;;;;;;;6.40;100.00;98290.33;1692506;83;21069;-49
2021/01/25 10:42:44;;;;;;;32.95;20.77;;;;;;;6.37;100.00;98272.60;1691209;82;21158;-49
2021/01/25 10:45:13;;;;;;;35.70;22.82;;;;;;;6.35;100.00;98272.32;1690382;83;21693;-50
2021/01/25 10:47:46;;;;;;;39.48;23.15;;;;;;;6.34;100.00;98273.24;1692435;82;21382;-50
2021/01/25 10:50:15;;;;;;;51.55;25.12;;;;;;;6.34;100.00;98273.24;1694302;83;21622;-49
2021/01/25 10:52:44;;;;;;;47.78;24.43;;;;;;;6.34;100.00;98275.92;1692893;82;21572;-49
2021/01/25 10:55:12;;;;;;;50.30;22.07;;;;;;;6.34;100.00;98257.18;1683677;82;21204;-51
2021/01/25 10:57:40;;;;;;;64.65;27.65;;;;;;;6.33;100.00;98266.17;1688689;83;21188;-52
2021/01/25 11:00:17;;;;;;;45.95;22.13;;;;;;;6.33;100.00;98263.49;1688856;83;21606;-52
2021/01/25 11:02:45;;;;;;;62.38;25.50;;;;;;;6.33;100.00;98254.98;1748805;79;21568;-49
2021/01/25 11:05:16;;;;;;;46.75;21.33;;;;;;;6.33;100.00;98236.72;1739713;81;21164;-53
2021/01/25 11:07:45;;;;;;;42.27;21.30;;;;;;;6.32;100.00;98240.36;1747644;79;21137;-52
2021/01/25 11:10:19;;;;;;;44.30;23.20;;;;;;;6.31;100.00;98226.11;1742860;81;21123;-54
2021/01/25 11:12:48;;;;;;;47.80;23.12;;;;;;;6.32;100.00;98226.97;1744885;79;22244;-51
2021/01/25 11:15:18;;;;;;;48.60;23.67;;;;;;;6.29;100.00;98227.55;1743454;79;21614;-48
2021/01/25 11:17:46;;;;;;;48.08;23.57;;;;;;;6.28;100.00;98224.48;1748305;79;20974;-50
2021/01/25 11:20:15;;;;;;;46.85;24.92;;;;;;;6.27;100.00;98213.37;1740263;81;21597;-52
2021/01/25 11:22:43;;;;;;;60.90;28.67;;;;;;;6.28;100.00;98205.75;1739722;79;21656;-53
2021/01/25 11:25:11;;;;;;;51.90;30.65;;;;;;;6.30;100.00;98208.33;1739663;81;22251;-48
2021/01/25 11:27:39;;;;;;;55.10;30.17;;;;;;;6.32;100.00;98198.86;1746434;79;21001;-51
2021/01/25 11:30:08;;;;;;;67.27;31.90;;;;;;;6.33;100.00;98195.23;1751881;79;22057;-49
2021/01/25 11:32:37;;;;;;;56.90;32.30;;;;;;;6.34;100.00;98184.90;1747833;79;21116;-50
2021/01/25 11:35:06;;;;;;;57.03;29.95;;;;;;;6.34;100.00;98176.87;1747152;79;20950;-48
2021/01/25 11:37:35;;;;;;;51.15;29.42;;;;;;;6.37;100.00;98182.05;1745203;79;22244;-50
2021/01/25 11:40:06;;;;;;;46.23;26.00;;;;;;;6.38;100.00;98174.41;1746399;79;21120;-51